createdAt,value
2022-08-16T00:00:20.355Z,19.29
2022-08-16T00:01:17.196Z,19.27
2022-08-16T00:02:16.675Z,19.25
2022-08-16T00:03:17.184Z,19.20
2022-08-16T00:04:16.856Z,19.17
2022-08-16T00:05:16.586Z,19.14
2022-08-16T00:06:17.278Z,19.14
2022-08-16T00:07:16.696Z,19.07
2022-08-16T00:08:35.684Z,19.03
2022-08-16T00:09:16.654Z,18.98
2022-08-16T00:10:20.178Z,18.92
2022-08-16T00:11:16.920Z,18.92
2022-08-16T00:12:17.852Z,18.91
2022-08-16T00:13:16.944Z,18.91
2022-08-16T00:14:17.281Z,18.92
2022-08-16T00:15:17.261Z,18.91
2022-08-16T00:16:58.471Z,18.89
2022-08-16T00:17:19.047Z,18.84
2022-08-16T00:18:17.006Z,18.77
2022-08-16T00:19:16.709Z,18.71
2022-08-16T00:20:17.126Z,18.66
2022-08-16T00:21:16.502Z,18.79
2022-08-16T00:22:17.263Z,18.77
2022-08-16T00:23:17.248Z,18.68
2022-08-16T00:24:31.462Z,18.66
2022-08-16T00:25:16.736Z,18.58
2022-08-16T00:26:34.037Z,18.49
2022-08-16T00:27:17.308Z,18.46
2022-08-16T00:28:17.036Z,18.42
2022-08-16T00:29:16.851Z,18.42
2022-08-16T00:30:19.785Z,18.44
2022-08-16T00:31:16.512Z,18.39
2022-08-16T00:32:17.908Z,18.39
2022-08-16T00:33:16.960Z,18.37
2022-08-16T00:34:18.155Z,18.36
2022-08-16T00:35:17.033Z,18.36
2022-08-16T00:36:16.464Z,18.29
2022-08-16T00:37:18.304Z,18.20
2022-08-16T00:38:38.404Z,18.19
2022-08-16T00:39:16.411Z,18.11
2022-08-16T00:40:33.826Z,18.06
2022-08-16T00:41:17.174Z,18.05
2022-08-16T00:42:29.473Z,17.92
2022-08-16T00:43:19.192Z,17.84
2022-08-16T00:44:16.973Z,17.85
2022-08-16T00:45:16.911Z,17.92
2022-08-16T00:46:22.527Z,17.94
2022-08-16T00:47:17.111Z,17.85
2022-08-16T00:48:28.851Z,17.82
2022-08-16T00:49:17.820Z,17.84
2022-08-16T00:50:17.155Z,17.88
2022-08-16T00:51:17.340Z,17.91
2022-08-16T00:52:29.305Z,17.89
2022-08-16T00:53:17.186Z,17.89
2022-08-16T00:54:16.649Z,17.88
2022-08-16T00:55:16.695Z,17.88
2022-08-16T00:56:55.509Z,17.82
2022-08-16T00:57:16.393Z,17.81
2022-08-16T00:58:18.634Z,17.74
2022-08-16T00:59:17.283Z,17.73
2022-08-16T01:00:19.739Z,17.71
2022-08-16T01:01:17.281Z,17.73
2022-08-16T01:02:30.166Z,17.67
2022-08-16T01:03:17.003Z,17.58
2022-08-16T01:04:25.707Z,17.53
2022-08-16T01:05:17.132Z,17.42
2022-08-16T01:06:32.870Z,17.33
2022-08-16T01:07:17.640Z,17.32
2022-08-16T01:08:34.941Z,17.36
2022-08-16T01:09:16.840Z,17.39
2022-08-16T01:10:17.051Z,17.42
2022-08-16T01:11:16.575Z,17.43
2022-08-16T01:12:21.800Z,17.37
2022-08-16T01:13:16.301Z,17.36
2022-08-16T01:14:16.459Z,17.33
2022-08-16T01:15:17.116Z,17.27
2022-08-16T01:16:19.768Z,17.32
2022-08-16T01:17:16.638Z,17.29
2022-08-16T01:18:39.576Z,17.19
2022-08-16T01:19:16.365Z,17.21
2022-08-16T01:20:24.261Z,17.21
2022-08-16T01:21:16.899Z,17.26
2022-08-16T01:22:48.723Z,17.25
2022-08-16T01:23:17.240Z,17.23
2022-08-16T01:24:44.953Z,17.21
2022-08-16T01:25:17.271Z,17.16
2022-08-16T01:26:33.917Z,17.16
2022-08-16T01:27:17.450Z,17.18
2022-08-16T01:28:19.627Z,17.19
2022-08-16T01:29:16.848Z,17.26
2022-08-16T01:30:19.867Z,17.25
2022-08-16T01:31:16.433Z,17.19
2022-08-16T01:32:27.496Z,17.11
2022-08-16T01:33:16.572Z,17.05
2022-08-16T01:34:22.916Z,17.04
2022-08-16T01:35:17.731Z,17.02
2022-08-16T01:36:17.119Z,16.99
2022-08-16T01:37:17.269Z,16.98
2022-08-16T01:38:19.564Z,16.94
2022-08-16T01:39:16.424Z,16.91
2022-08-16T01:40:16.871Z,16.91
2022-08-16T01:41:19.113Z,16.84
2022-08-16T01:42:19.245Z,16.86
2022-08-16T01:43:16.705Z,16.87
2022-08-16T01:44:18.634Z,16.92
2022-08-16T01:45:19.575Z,16.87
2022-08-16T01:46:17.451Z,16.88
2022-08-16T01:47:16.608Z,16.86
2022-08-16T01:48:20.072Z,16.80
2022-08-16T01:49:17.035Z,16.83
2022-08-16T01:50:41.574Z,16.84
2022-08-16T01:51:17.410Z,16.78
2022-08-16T01:52:27.889Z,16.77
2022-08-16T01:53:16.713Z,16.77
2022-08-16T01:54:17.207Z,16.77
2022-08-16T01:55:16.515Z,16.77
2022-08-16T01:56:23.150Z,16.77
2022-08-16T01:57:16.830Z,16.73
2022-08-16T01:58:16.998Z,16.74
2022-08-16T01:59:16.934Z,16.74
2022-08-16T02:00:19.136Z,16.77
2022-08-16T02:01:17.097Z,16.77
2022-08-16T02:02:26.551Z,16.74
2022-08-16T02:03:16.391Z,16.71
2022-08-16T02:04:29.867Z,16.74
2022-08-16T02:05:16.623Z,16.74
2022-08-16T02:06:16.444Z,16.74
2022-08-16T02:07:16.517Z,16.70
2022-08-16T02:08:33.092Z,16.71
2022-08-16T02:09:17.719Z,16.66
2022-08-16T02:10:16.599Z,16.63
2022-08-16T02:11:16.401Z,16.63
2022-08-16T02:12:40.058Z,16.62
2022-08-16T02:13:16.380Z,16.63
2022-08-16T02:14:17.333Z,16.62
2022-08-16T02:15:16.825Z,16.60
2022-08-16T02:16:18.639Z,16.56
2022-08-16T02:17:16.430Z,16.59
2022-08-16T02:18:18.447Z,16.60
2022-08-16T02:19:17.263Z,16.62
2022-08-16T02:20:16.718Z,16.66
2022-08-16T02:21:17.182Z,16.67
2022-08-16T02:22:33.427Z,16.68
2022-08-16T02:23:17.440Z,16.68
2022-08-16T02:24:30.735Z,16.66
2022-08-16T02:25:17.150Z,16.62
2022-08-16T02:26:16.923Z,16.63
2022-08-16T02:27:16.462Z,16.62
2022-08-16T02:28:17.311Z,16.59
2022-08-16T02:29:16.972Z,16.52
2022-08-16T02:30:36.218Z,16.46
2022-08-16T02:31:16.736Z,16.45
2022-08-16T02:32:49.483Z,16.43
2022-08-16T02:33:16.828Z,16.37
2022-08-16T02:34:16.672Z,16.35
2022-08-16T02:35:17.075Z,16.32
2022-08-16T02:36:42.558Z,16.28
2022-08-16T02:37:16.563Z,16.28
2022-08-16T02:38:17.237Z,16.29
2022-08-16T02:39:16.918Z,16.28
2022-08-16T02:40:16.515Z,16.26
2022-08-16T02:41:17.006Z,16.31
2022-08-16T02:42:19.187Z,16.31
2022-08-16T02:43:16.797Z,16.35
2022-08-16T02:44:17.269Z,16.35
2022-08-16T02:45:16.459Z,16.32
2022-08-16T02:46:16.892Z,16.21
2022-08-16T02:47:24.827Z,16.19
2022-08-16T02:48:28.677Z,16.22
2022-08-16T02:49:16.749Z,16.21
2022-08-16T02:50:53.252Z,16.22
2022-08-16T02:51:16.729Z,16.26
2022-08-16T02:52:24.606Z,16.29
2022-08-16T02:53:17.972Z,16.28
2022-08-16T02:54:17.019Z,16.21
2022-08-16T02:55:16.511Z,16.22
2022-08-16T02:56:16.991Z,16.25
2022-08-16T02:57:16.478Z,16.22
2022-08-16T02:58:16.471Z,16.21
2022-08-16T02:59:16.904Z,16.21
2022-08-16T03:00:32.310Z,16.22
2022-08-16T03:01:24.527Z,16.26
2022-08-16T03:02:16.537Z,16.25
2022-08-16T03:03:17.582Z,16.25
2022-08-16T03:04:29.401Z,16.24
2022-08-16T03:05:16.755Z,16.22
2022-08-16T03:06:36.374Z,16.18
2022-08-16T03:07:16.765Z,16.17
2022-08-16T03:08:35.627Z,16.14
2022-08-16T03:09:16.822Z,16.14
2022-08-16T03:10:17.032Z,16.14
2022-08-16T03:11:20.450Z,16.11
2022-08-16T03:12:17.785Z,16.08
2022-08-16T03:13:16.369Z,16.11
2022-08-16T03:14:21.022Z,16.04
2022-08-16T03:15:16.386Z,16.01
2022-08-16T03:16:17.987Z,15.95
2022-08-16T03:17:17.052Z,15.95
2022-08-16T03:18:18.466Z,15.94
2022-08-16T03:19:16.505Z,15.92
2022-08-16T03:20:18.262Z,15.90
2022-08-16T03:21:16.792Z,15.85
2022-08-16T03:22:19.057Z,15.88
2022-08-16T03:23:16.720Z,15.87
2022-08-16T03:24:27.800Z,15.88
2022-08-16T03:25:17.273Z,15.90
2022-08-16T03:26:16.710Z,15.87
2022-08-16T03:27:16.537Z,15.84
2022-08-16T03:28:17.378Z,15.83
2022-08-16T03:29:16.289Z,15.83
2022-08-16T03:30:17.719Z,15.84
2022-08-16T03:31:17.099Z,15.77
2022-08-16T03:32:17.009Z,15.73
2022-08-16T03:33:17.208Z,15.76
2022-08-16T03:34:17.033Z,15.70
2022-08-16T03:35:17.697Z,15.73
2022-08-16T03:36:20.065Z,15.69
2022-08-16T03:37:17.146Z,15.72
2022-08-16T03:38:32.316Z,15.67
2022-08-16T03:39:20.237Z,15.67
2022-08-16T03:40:23.402Z,15.64
2022-08-16T03:41:24.684Z,15.69
2022-08-16T03:42:20.338Z,15.67
2022-08-16T03:43:19.551Z,15.81
2022-08-16T03:44:40.569Z,15.80
2022-08-16T03:45:16.488Z,15.80
2022-08-16T03:46:44.643Z,15.78
2022-08-16T03:47:18.762Z,15.77
2022-08-16T03:48:18.346Z,15.74
2022-08-16T03:49:17.274Z,15.69
2022-08-16T03:50:25.452Z,15.69
2022-08-16T03:51:17.291Z,15.63
2022-08-16T03:52:16.707Z,15.63
2022-08-16T03:53:16.770Z,15.63
2022-08-16T03:54:16.611Z,15.63
2022-08-16T03:55:16.548Z,15.60
2022-08-16T03:56:18.720Z,15.62
2022-08-16T03:57:16.622Z,15.60
2022-08-16T03:58:17.129Z,15.60
2022-08-16T03:59:16.551Z,15.62
2022-08-16T04:00:20.365Z,15.59
2022-08-16T04:01:17.145Z,15.57
2022-08-16T04:02:22.100Z,15.60
2022-08-16T04:03:18.630Z,15.63
2022-08-16T04:04:17.734Z,15.64
2022-08-16T04:05:16.760Z,15.63
2022-08-16T04:06:16.588Z,15.67
2022-08-16T04:07:16.367Z,15.66
2022-08-16T04:08:22.595Z,15.70
2022-08-16T04:09:16.332Z,15.73
2022-08-16T04:10:36.439Z,15.73
2022-08-16T04:11:17.302Z,15.70
2022-08-16T04:12:52.654Z,15.70
2022-08-16T04:13:20.043Z,15.74
2022-08-16T04:14:33.193Z,15.77
2022-08-16T04:15:16.791Z,15.80
2022-08-16T04:16:26.843Z,15.81
2022-08-16T04:17:17.025Z,15.87
2022-08-16T04:18:16.522Z,15.88
2022-08-16T04:19:16.674Z,15.80
2022-08-16T04:20:23.921Z,15.72
2022-08-16T04:21:29.098Z,15.70
2022-08-16T04:22:17.091Z,15.72
2022-08-16T04:23:16.963Z,15.70
2022-08-16T04:24:16.668Z,15.73
2022-08-16T04:25:17.193Z,15.73
2022-08-16T04:26:17.336Z,15.72
2022-08-16T04:27:17.334Z,15.74
2022-08-16T04:28:28.938Z,15.74
2022-08-16T04:29:24.325Z,15.77
2022-08-16T04:30:32.031Z,15.81
2022-08-16T04:31:16.285Z,15.83
2022-08-16T04:32:16.674Z,15.77
2022-08-16T04:33:16.374Z,15.72
2022-08-16T04:34:16.811Z,15.72
2022-08-16T04:35:16.779Z,15.63
2022-08-16T04:36:19.714Z,15.66
2022-08-16T04:37:16.931Z,15.70
2022-08-16T04:38:21.075Z,15.76
2022-08-16T04:39:17.047Z,15.73
2022-08-16T04:40:20.701Z,15.72
2022-08-16T04:41:16.429Z,15.72
2022-08-16T04:42:16.731Z,15.72
2022-08-16T04:43:17.371Z,15.70
2022-08-16T04:44:19.091Z,15.67
2022-08-16T04:45:17.741Z,15.59
2022-08-16T04:46:19.962Z,15.60
2022-08-16T04:47:21.266Z,15.70
2022-08-16T04:48:21.917Z,15.83
2022-08-16T04:49:16.328Z,15.85
2022-08-16T04:50:16.750Z,15.94
2022-08-16T04:51:16.562Z,15.94
2022-08-16T04:52:26.995Z,16.01
2022-08-16T04:53:16.952Z,15.98
2022-08-16T04:54:19.403Z,15.87
2022-08-16T04:55:17.053Z,15.97
2022-08-16T04:56:16.902Z,15.97
2022-08-16T04:57:16.365Z,16.22
2022-08-16T04:58:38.239Z,16.19
2022-08-16T04:59:16.900Z,16.24
2022-08-16T05:00:31.589Z,16.24
2022-08-16T05:01:16.577Z,16.17
2022-08-16T05:02:21.464Z,16.22
2022-08-16T05:03:16.878Z,16.24
2022-08-16T05:04:19.473Z,16.35
2022-08-16T05:05:16.915Z,16.40
2022-08-16T05:06:16.416Z,16.43
2022-08-16T05:07:20.394Z,16.45
2022-08-16T05:08:28.702Z,16.54
2022-08-16T05:09:17.082Z,16.54
2022-08-16T05:10:19.725Z,16.62
2022-08-16T05:11:16.375Z,16.71
2022-08-16T05:12:18.337Z,16.70
2022-08-16T05:13:17.070Z,16.66
2022-08-16T05:14:20.103Z,16.63
2022-08-16T05:15:16.959Z,16.74
2022-08-16T05:16:20.401Z,16.67
2022-08-16T05:17:16.427Z,16.63
2022-08-16T05:18:18.265Z,16.67
2022-08-16T05:19:16.613Z,16.83
2022-08-16T05:20:35.376Z,16.90
2022-08-16T05:21:16.660Z,16.98
2022-08-16T05:22:17.572Z,16.98
2022-08-16T05:23:16.916Z,16.63
2022-08-16T05:24:22.030Z,16.73
2022-08-16T05:25:16.356Z,16.73
2022-08-16T05:26:19.706Z,16.90
2022-08-16T05:27:16.837Z,17.01
2022-08-16T05:28:16.617Z,17.08
2022-08-16T05:29:17.040Z,17.16
2022-08-16T05:30:34.284Z,17.04
2022-08-16T05:31:17.107Z,16.94
2022-08-16T05:32:32.063Z,17.02
2022-08-16T05:33:18.075Z,17.04
2022-08-16T05:34:17.817Z,17.21
2022-08-16T05:35:16.503Z,17.21
2022-08-16T05:36:17.264Z,17.22
2022-08-16T05:37:16.457Z,16.99
2022-08-16T05:38:31.283Z,17.08
2022-08-16T05:39:17.051Z,17.36
2022-08-16T05:40:16.552Z,17.47
2022-08-16T05:41:17.131Z,17.50
2022-08-16T05:42:16.807Z,17.44
2022-08-16T05:43:17.217Z,17.27
2022-08-16T05:44:22.707Z,17.29
2022-08-16T05:45:21.289Z,17.50
2022-08-16T05:46:29.222Z,17.61
2022-08-16T05:47:16.538Z,17.70
2022-08-16T05:48:16.498Z,17.89
2022-08-16T05:49:16.497Z,17.95
2022-08-16T05:50:18.896Z,17.99
2022-08-16T05:51:23.530Z,18.04
2022-08-16T05:52:17.346Z,18.23
2022-08-16T05:53:16.302Z,18.20
2022-08-16T05:54:16.756Z,18.15
2022-08-16T05:55:16.826Z,18.39
2022-08-16T05:56:19.367Z,18.44
2022-08-16T05:57:17.053Z,18.42
2022-08-16T05:58:20.091Z,18.26
2022-08-16T05:59:16.679Z,18.08
2022-08-16T06:00:20.416Z,18.08
2022-08-16T06:01:17.322Z,18.26
2022-08-16T06:02:17.164Z,18.51
2022-08-16T06:03:16.617Z,18.54
2022-08-16T06:04:34.432Z,18.64
2022-08-16T06:05:17.227Z,18.49
2022-08-16T06:06:27.822Z,18.43
2022-08-16T06:07:24.421Z,18.36
2022-08-16T06:08:32.253Z,18.37
2022-08-16T06:09:16.637Z,18.57
2022-08-16T06:10:32.144Z,18.75
2022-08-16T06:11:16.647Z,18.68
2022-08-16T06:12:26.621Z,18.77
2022-08-16T06:13:17.070Z,18.94
2022-08-16T06:14:16.637Z,19.26
2022-08-16T06:15:16.947Z,19.39
2022-08-16T06:16:17.923Z,19.47
2022-08-16T06:17:17.166Z,19.44
2022-08-16T06:18:17.115Z,19.51
2022-08-16T06:19:16.978Z,19.69
2022-08-16T06:20:18.354Z,19.99
2022-08-16T06:21:22.474Z,20.15
2022-08-16T06:22:19.365Z,20.26
2022-08-16T06:23:17.993Z,20.27
2022-08-16T06:24:53.222Z,20.38
2022-08-16T06:25:16.429Z,20.72
2022-08-16T06:26:17.076Z,20.78
2022-08-16T06:27:16.492Z,20.81
2022-08-16T06:28:34.702Z,20.86
2022-08-16T06:29:16.536Z,20.98
2022-08-16T06:30:19.566Z,21.06
2022-08-16T06:31:16.299Z,20.98
2022-08-16T06:32:27.494Z,21.07
2022-08-16T06:33:19.987Z,21.13
2022-08-16T06:34:31.731Z,21.16
2022-08-16T06:35:16.315Z,21.27
2022-08-16T06:36:16.768Z,21.23
2022-08-16T06:37:17.254Z,21.48
2022-08-16T06:38:22.300Z,21.58
2022-08-16T06:39:16.925Z,21.58
2022-08-16T06:40:16.565Z,21.44
2022-08-16T06:41:17.192Z,21.50
2022-08-16T06:42:18.044Z,21.57
2022-08-16T06:43:16.295Z,21.99
2022-08-16T06:44:20.626Z,22.45
2022-08-16T06:45:16.793Z,22.67
2022-08-16T06:46:17.236Z,23.06
2022-08-16T06:47:17.421Z,23.37
2022-08-16T06:48:18.807Z,23.38
2022-08-16T06:49:16.459Z,23.44
2022-08-16T06:50:21.897Z,23.62
2022-08-16T06:51:16.324Z,23.55
2022-08-16T06:52:58.602Z,23.68
2022-08-16T06:53:19.037Z,24.06
2022-08-16T06:54:16.339Z,24.23
2022-08-16T06:55:16.790Z,24.40
2022-08-16T06:56:23.227Z,24.14
2022-08-16T06:57:17.216Z,23.96
2022-08-16T06:58:21.643Z,23.96
2022-08-16T06:59:16.880Z,24.36
2022-08-16T07:00:17.559Z,24.68
2022-08-16T07:01:18.312Z,24.90
2022-08-16T07:02:32.683Z,25.09
2022-08-16T07:03:26.475Z,24.76
2022-08-16T07:04:32.222Z,24.82
2022-08-16T07:05:17.172Z,24.38
2022-08-16T07:06:16.644Z,24.95
2022-08-16T07:07:17.046Z,25.34
2022-08-16T07:08:16.456Z,25.38
2022-08-16T07:09:16.500Z,25.61
2022-08-16T07:10:17.300Z,25.40
2022-08-16T07:11:16.954Z,25.55
2022-08-16T07:12:16.825Z,25.31
2022-08-16T07:13:19.819Z,24.86
2022-08-16T07:14:25.508Z,25.42
2022-08-16T07:15:16.997Z,25.61
2022-08-16T07:16:16.331Z,25.96
2022-08-16T07:17:16.790Z,26.23
2022-08-16T07:18:16.654Z,25.20
2022-08-16T07:19:17.116Z,25.24
2022-08-16T07:20:30.458Z,25.13
2022-08-16T07:21:16.317Z,25.89
2022-08-16T07:22:36.941Z,25.57
2022-08-16T07:23:17.135Z,25.92
2022-08-16T07:24:26.895Z,26.40
2022-08-16T07:25:17.208Z,26.54
2022-08-16T07:26:25.029Z,26.54
2022-08-16T07:27:17.097Z,26.26
2022-08-16T07:28:20.435Z,26.72
2022-08-16T07:29:17.071Z,26.87
2022-08-16T07:30:38.753Z,26.51
2022-08-16T07:31:17.058Z,26.85
2022-08-16T07:32:16.773Z,26.85
2022-08-16T07:33:17.768Z,27.23
2022-08-16T07:34:17.007Z,27.18
2022-08-16T07:35:17.047Z,27.41
2022-08-16T07:36:21.854Z,27.90
2022-08-16T07:37:16.912Z,27.20
2022-08-16T07:38:19.511Z,27.40
2022-08-16T07:39:16.532Z,27.27
2022-08-16T07:40:17.113Z,27.87
2022-08-16T07:41:16.695Z,28.16
2022-08-16T07:42:20.447Z,28.04
2022-08-16T07:43:16.836Z,28.68
2022-08-16T07:44:17.300Z,28.83
2022-08-16T07:45:17.058Z,28.49
2022-08-16T07:46:36.944Z,28.37
2022-08-16T07:47:17.264Z,28.42
2022-08-16T07:48:16.715Z,28.37
2022-08-16T07:49:16.919Z,28.30
2022-08-16T07:50:55.215Z,28.62
2022-08-16T07:51:17.152Z,28.94
2022-08-16T07:52:18.858Z,29.24
2022-08-16T07:53:17.136Z,29.45
2022-08-16T07:54:21.045Z,29.44
2022-08-16T07:55:16.997Z,29.37
2022-08-16T07:56:16.854Z,29.37
2022-08-16T07:57:18.863Z,29.33
2022-08-16T07:58:18.225Z,28.81
2022-08-16T07:59:17.033Z,28.62
2022-08-16T08:00:18.676Z,27.90
2022-08-16T08:01:16.553Z,28.02
2022-08-16T08:02:19.899Z,27.07
2022-08-16T08:03:16.526Z,27.54
2022-08-16T08:04:16.432Z,28.39
2022-08-16T08:05:16.942Z,29.31
2022-08-16T08:06:17.101Z,29.63
2022-08-16T08:07:16.705Z,29.10
2022-08-16T08:08:50.077Z,29.10
2022-08-16T08:09:16.535Z,29.51
2022-08-16T08:10:29.333Z,29.88
2022-08-16T08:11:17.576Z,30.21
2022-08-16T08:12:31.763Z,30.50
2022-08-16T08:13:17.162Z,30.79
2022-08-16T08:14:29.596Z,30.68
2022-08-16T08:15:16.471Z,30.78
2022-08-16T08:16:18.738Z,30.96
2022-08-16T08:17:17.235Z,30.78
2022-08-16T08:18:21.012Z,30.76
2022-08-16T08:19:17.015Z,30.65
2022-08-16T08:20:18.550Z,30.69
2022-08-16T08:21:16.720Z,31.17
2022-08-16T08:22:19.032Z,31.79
2022-08-16T08:23:17.253Z,31.59
2022-08-16T08:24:16.774Z,31.51
2022-08-16T08:25:17.046Z,30.82
2022-08-16T08:26:17.577Z,30.70
2022-08-16T08:27:22.726Z,30.97
2022-08-16T08:28:16.612Z,31.24
2022-08-16T08:29:16.689Z,31.16
2022-08-16T08:30:49.139Z,31.09
2022-08-16T08:31:17.235Z,31.42
2022-08-16T08:32:51.297Z,31.07
2022-08-16T08:33:16.710Z,30.79
2022-08-16T08:34:17.224Z,31.49
2022-08-16T08:35:17.189Z,31.25
2022-08-16T08:36:21.845Z,30.98
2022-08-16T08:37:16.837Z,31.42
2022-08-16T08:38:17.171Z,32.02
2022-08-16T08:39:16.604Z,31.97
2022-08-16T08:40:16.447Z,32.27
2022-08-16T08:41:18.511Z,32.99
2022-08-16T08:42:16.353Z,32.62
2022-08-16T08:43:17.891Z,31.69
2022-08-16T08:44:28.251Z,30.82
2022-08-16T08:45:29.971Z,30.85
2022-08-16T08:46:18.043Z,30.62
2022-08-16T08:47:16.584Z,30.72
2022-08-16T08:48:29.242Z,31.93
2022-08-16T08:49:16.957Z,32.31
2022-08-16T08:50:31.530Z,33.02
2022-08-16T08:51:16.680Z,33.42
2022-08-16T08:52:34.043Z,33.67
2022-08-16T08:53:17.072Z,34.04
2022-08-16T08:54:18.592Z,33.99
2022-08-16T08:55:16.313Z,31.65
2022-08-16T08:56:22.784Z,32.51
2022-08-16T08:57:17.141Z,33.79
2022-08-16T08:58:16.581Z,34.33
2022-08-16T08:59:19.958Z,34.06
2022-08-16T09:00:16.628Z,33.64
2022-08-16T09:01:17.174Z,33.41
2022-08-16T09:02:16.628Z,33.55
2022-08-16T09:03:17.026Z,32.96
2022-08-16T09:04:17.424Z,32.75
2022-08-16T09:05:16.586Z,32.41
2022-08-16T09:06:18.497Z,32.46
2022-08-16T09:07:17.087Z,33.09
2022-08-16T09:08:16.301Z,33.38
2022-08-16T09:09:17.471Z,33.92
2022-08-16T09:10:20.239Z,33.55
2022-08-16T09:11:18.377Z,34.14
2022-08-16T09:12:29.349Z,34.31
2022-08-16T09:13:16.681Z,34.57
2022-08-16T09:14:16.903Z,35.26
2022-08-16T09:15:16.379Z,35.05
2022-08-16T09:16:57.515Z,34.62
2022-08-16T09:17:31.827Z,33.64
2022-08-16T09:18:25.563Z,33.72
2022-08-16T09:19:16.871Z,34.27
2022-08-16T09:20:17.239Z,34.10
2022-08-16T09:21:16.723Z,34.53
2022-08-16T09:22:20.249Z,34.68
2022-08-16T09:23:18.398Z,34.79
2022-08-16T09:24:29.183Z,32.55
2022-08-16T09:25:18.790Z,32.42
2022-08-16T09:26:18.114Z,33.07
2022-08-16T09:27:16.613Z,33.93
2022-08-16T09:28:38.164Z,33.88
2022-08-16T09:29:23.903Z,33.65
2022-08-16T09:30:31.623Z,33.54
2022-08-16T09:31:17.180Z,33.27
2022-08-16T09:32:25.516Z,32.97
2022-08-16T09:33:16.362Z,32.21
2022-08-16T09:34:19.278Z,31.17
2022-08-16T09:35:16.986Z,32.95
2022-08-16T09:36:32.552Z,32.85
2022-08-16T09:37:17.839Z,32.71
2022-08-16T09:38:22.255Z,33.25
2022-08-16T09:39:16.995Z,34.41
2022-08-16T09:40:17.952Z,34.19
2022-08-16T09:41:16.887Z,33.89
2022-08-16T09:42:16.796Z,33.83
2022-08-16T09:43:37.613Z,32.59
2022-08-16T09:45:10.136Z,29.96
2022-08-16T09:45:18.467Z,32.07
2022-08-16T09:46:46.118Z,32.14
2022-08-16T09:47:16.998Z,31.71
2022-08-16T09:48:21.312Z,31.92
2022-08-16T09:49:16.498Z,32.44
2022-08-16T09:50:22.773Z,31.64
2022-08-16T09:51:16.434Z,30.78
2022-08-16T09:52:17.149Z,30.69
2022-08-16T09:53:16.901Z,30.00
2022-08-16T09:54:16.924Z,29.85
2022-08-16T09:55:16.356Z,29.79
2022-08-16T09:56:17.744Z,29.49
2022-08-16T09:57:17.252Z,29.04
2022-08-16T09:58:39.133Z,28.86
2022-08-16T09:59:17.166Z,28.93
2022-08-16T10:00:42.831Z,29.04
2022-08-16T10:01:17.146Z,29.51
2022-08-16T10:02:23.184Z,29.07
2022-08-16T10:03:16.397Z,28.89
2022-08-16T10:04:29.024Z,29.16
2022-08-16T10:05:17.209Z,29.35
2022-08-16T10:06:16.664Z,28.89
2022-08-16T10:07:17.152Z,28.49
2022-08-16T10:08:25.689Z,28.47
2022-08-16T10:09:16.924Z,28.37
2022-08-16T10:10:18.789Z,27.83
2022-08-16T10:11:22.903Z,27.82
2022-08-16T10:12:17.987Z,27.75
2022-08-16T10:13:16.733Z,27.59
2022-08-16T10:14:17.259Z,27.58
2022-08-16T10:15:17.085Z,27.57
2022-08-16T10:16:17.190Z,27.55
2022-08-16T10:17:16.731Z,27.58
2022-08-16T10:18:41.221Z,26.79
2022-08-16T10:19:19.340Z,26.69
2022-08-16T10:20:18.765Z,26.76
2022-08-16T10:21:16.292Z,26.66
2022-08-16T10:22:17.228Z,26.48
2022-08-16T10:23:16.931Z,26.35
2022-08-16T10:24:27.111Z,26.37
2022-08-16T10:26:59.853Z,26.37
2022-08-16T10:26:59.970Z,26.50
2022-08-16T10:27:26.330Z,26.34
2022-08-16T10:28:28.396Z,26.41
2022-08-16T10:29:19.847Z,26.19
2022-08-16T10:30:25.460Z,26.03
2022-08-16T10:31:17.008Z,26.00
2022-08-16T10:32:20.777Z,25.85
2022-08-16T10:33:17.071Z,25.93
2022-08-16T10:34:24.166Z,26.04
2022-08-16T10:35:16.610Z,26.33
2022-08-16T10:36:38.075Z,26.34
2022-08-16T10:37:16.984Z,26.26
2022-08-16T10:38:26.820Z,26.40
2022-08-16T10:39:16.584Z,26.40
2022-08-16T10:40:28.901Z,26.51
2022-08-16T10:41:17.006Z,26.63
2022-08-16T10:42:16.980Z,26.69
2022-08-16T10:43:18.592Z,26.76
2022-08-16T10:44:17.673Z,26.90
2022-08-16T10:45:16.717Z,26.86
2022-08-16T10:46:33.543Z,26.81
2022-08-16T10:47:16.987Z,26.87
2022-08-16T10:48:24.136Z,26.87
2022-08-16T10:49:16.900Z,26.97
2022-08-16T10:50:18.828Z,26.96
2022-08-16T10:51:16.872Z,26.86
2022-08-16T10:52:18.528Z,26.82
2022-08-16T10:53:16.319Z,26.79
2022-08-16T10:54:21.183Z,26.90
2022-08-16T10:55:44.015Z,26.58
2022-08-16T10:56:44.432Z,26.42
2022-08-16T10:57:16.845Z,26.55
2022-08-16T10:58:17.365Z,26.58
2022-08-16T10:59:33.065Z,26.85
2022-08-16T11:00:19.104Z,26.95
2022-08-16T11:01:40.322Z,26.89
2022-08-16T11:02:57.260Z,26.34
2022-08-16T11:03:41.998Z,26.31
2022-08-16T11:05:17.169Z,26.65
2022-08-16T11:06:16.326Z,26.76
2022-08-16T11:07:45.378Z,26.73
2022-08-16T11:08:16.709Z,26.48
2022-08-16T11:09:24.633Z,26.26
2022-08-16T11:10:21.082Z,26.45
2022-08-16T11:11:19.591Z,26.55
2022-08-16T11:12:16.529Z,26.75
2022-08-16T11:14:16.929Z,26.72
2022-08-16T11:15:17.039Z,26.93
2022-08-16T11:16:27.271Z,27.02
2022-08-16T11:17:16.978Z,26.97
2022-08-16T11:18:49.077Z,26.69
2022-08-16T11:19:17.054Z,26.89
2022-08-16T11:20:42.623Z,26.95
2022-08-16T11:21:28.409Z,27.28
2022-08-16T11:22:22.454Z,27.51
2022-08-16T11:23:16.496Z,27.62
2022-08-16T11:24:40.416Z,27.21
2022-08-16T11:26:06.345Z,27.65
2022-08-16T11:26:24.071Z,28.20
2022-08-16T11:27:21.117Z,28.72
2022-08-16T11:28:36.414Z,29.01
2022-08-16T11:29:16.394Z,29.40
2022-08-16T11:30:19.763Z,29.33
2022-08-16T11:31:16.552Z,28.16
2022-08-16T11:32:20.033Z,28.37
2022-08-16T11:33:16.909Z,29.37
2022-08-16T11:34:16.595Z,28.94
2022-08-16T11:35:16.657Z,28.66
2022-08-16T11:36:25.210Z,29.18
2022-08-16T11:37:20.006Z,28.97
2022-08-16T11:38:23.706Z,28.97
2022-08-16T11:39:17.304Z,28.68
2022-08-16T11:40:16.543Z,29.13
2022-08-16T11:41:16.987Z,29.55
2022-08-16T11:42:23.275Z,29.95
2022-08-16T11:43:17.024Z,29.89
2022-08-16T11:44:20.336Z,29.99
2022-08-16T11:45:17.069Z,30.14
2022-08-16T11:46:27.899Z,30.28
2022-08-16T11:47:16.408Z,30.28
2022-08-16T11:48:16.830Z,30.14
2022-08-16T11:49:17.782Z,29.14
2022-08-16T11:50:17.254Z,29.35
2022-08-16T11:51:16.767Z,29.45
2022-08-16T11:52:17.427Z,29.68
2022-08-16T11:53:16.878Z,29.71
2022-08-16T11:54:20.302Z,29.80
2022-08-16T11:55:16.463Z,29.95
2022-08-16T11:56:16.902Z,29.63
2022-08-16T11:57:17.012Z,29.55
2022-08-16T11:58:17.238Z,29.72
2022-08-16T11:59:16.535Z,29.58
2022-08-16T12:00:33.443Z,29.09
2022-08-16T12:01:16.539Z,29.07
2022-08-16T12:02:30.812Z,28.71
2022-08-16T12:03:17.159Z,28.86
2022-08-16T12:04:16.588Z,28.96
2022-08-16T12:05:16.634Z,28.65
2022-08-16T12:06:24.488Z,28.38
2022-08-16T12:07:17.036Z,28.58
2022-08-16T12:08:18.126Z,28.86
2022-08-16T12:09:16.831Z,28.65
2022-08-16T12:10:17.237Z,28.30
2022-08-16T12:11:16.959Z,28.64
2022-08-16T12:12:18.577Z,28.61
2022-08-16T12:13:17.154Z,28.56
2022-08-16T12:14:16.620Z,28.66
2022-08-16T12:15:16.420Z,28.66
2022-08-16T12:16:17.510Z,28.78
2022-08-16T12:17:17.052Z,28.83
2022-08-16T12:18:20.792Z,28.92
2022-08-16T12:19:16.967Z,29.09
2022-08-16T12:20:18.556Z,29.23
2022-08-16T12:21:16.452Z,29.33
2022-08-16T12:22:18.706Z,29.27
2022-08-16T12:23:17.386Z,29.31
2022-08-16T12:24:16.896Z,29.20
2022-08-16T12:25:16.344Z,29.14
2022-08-16T12:26:16.854Z,28.94
2022-08-16T12:27:16.352Z,29.09
2022-08-16T12:28:17.118Z,29.16
2022-08-16T12:29:16.614Z,29.26
2022-08-16T12:30:21.458Z,29.35
2022-08-16T12:31:16.837Z,29.41
2022-08-16T12:32:26.918Z,29.38
2022-08-16T12:33:25.379Z,29.40
2022-08-16T12:34:17.477Z,29.48
2022-08-16T12:35:16.444Z,29.35
2022-08-16T12:36:16.938Z,29.42
2022-08-16T12:37:17.121Z,29.51
2022-08-16T12:38:38.380Z,29.44
2022-08-16T12:39:16.627Z,29.27
2022-08-16T12:40:17.872Z,29.21
2022-08-16T12:41:19.086Z,29.10
2022-08-16T12:42:17.262Z,29.06
2022-08-16T12:43:16.711Z,29.06
2022-08-16T12:44:19.969Z,29.11
2022-08-16T12:45:16.567Z,29.06
2022-08-16T12:46:16.574Z,29.03
2022-08-16T12:47:17.011Z,29.09
2022-08-16T12:48:33.058Z,29.26
2022-08-16T12:49:17.126Z,29.27
2022-08-16T12:50:16.653Z,29.28
2022-08-16T12:51:20.150Z,29.31
2022-08-16T12:52:32.672Z,29.33
2022-08-16T12:53:16.600Z,29.28
2022-08-16T12:54:17.075Z,29.24